sensor_id;sensor_type;location;lat;lon;timestamp;P1;durP1;ratioP1;P2;durP2;ratioP2
30571;SDS011;17348;50.948;10.696;2024-01-11T00:02:25;137.47;;;42.03;;
30571;SDS011;17348;50.948;10.696;2024-01-11T00:05:28;115.50;;;37.60;;
30571;SDS011;17348;50.948;10.696;2024-01-11T00:08:31;110.00;;;38.07;;
30571;SDS011;17348;50.948;10.696;2024-01-11T00:11:33;113.30;;;37.10;;
30571;SDS011;17348;50.948;10.696;2024-01-11T00:14:36;131.70;;;40.40;;
30571;SDS011;17348;50.948;10.696;2024-01-11T00:17:38;109.07;;;40.27;;
30571;SDS011;17348;50.948;10.696;2024-01-11T00:20:42;118.33;;;37.73;;
30571;SDS011;17348;50.948;10.696;2024-01-11T00:23:46;133.60;;;36.57;;
30571;SDS011;17348;50.948;10.696;2024-01-11T00:26:49;110.57;;;37.33;;
30571;SDS011;17348;50.948;10.696;2024-01-11T00:29:51;118.60;;;38.97;;
30571;SDS011;17348;50.948;10.696;2024-01-11T00:32:56;110.90;;;34.43;;
30571;SDS011;17348;50.948;10.696;2024-01-11T00:36:00;116.40;;;36.10;;
30571;SDS011;17348;50.948;10.696;2024-01-11T00:39:05;130.50;;;40.90;;
30571;SDS011;17348;50.948;10.696;2024-01-11T00:42:07;111.63;;;35.73;;
30571;SDS011;17348;50.948;10.696;2024-01-11T00:45:11;128.17;;;40.00;;
30571;SDS011;17348;50.948;10.696;2024-01-11T00:48:14;118.47;;;35.90;;
30571;SDS011;17348;50.948;10.696;2024-01-11T00:51:19;125.80;;;40.17;;
30571;SDS011;17348;50.948;10.696;2024-01-11T00:54:21;118.87;;;37.97;;
30571;SDS011;17348;50.948;10.696;2024-01-11T00:57:30;122.07;;;39.40;;
30571;SDS011;17348;50.948;10.696;2024-01-11T01:00:32;122.30;;;36.80;;
30571;SDS011;17348;50.948;10.696;2024-01-11T01:03:35;130.63;;;40.17;;
30571;SDS011;17348;50.948;10.696;2024-01-11T01:06:42;131.53;;;38.93;;
30571;SDS011;17348;50.948;10.696;2024-01-11T01:09:44;139.30;;;41.20;;
30571;SDS011;17348;50.948;10.696;2024-01-11T01:12:47;134.40;;;42.60;;
30571;SDS011;17348;50.948;10.696;2024-01-11T01:15:49;126.70;;;38.70;;
30571;SDS011;17348;50.948;10.696;2024-01-11T01:18:51;131.17;;;40.10;;
30571;SDS011;17348;50.948;10.696;2024-01-11T01:21:55;124.50;;;38.83;;
30571;SDS011;17348;50.948;10.696;2024-01-11T01:24:57;128.13;;;40.63;;
30571;SDS011;17348;50.948;10.696;2024-01-11T01:28:00;137.23;;;40.73;;
30571;SDS011;17348;50.948;10.696;2024-01-11T01:31:02;124.87;;;38.70;;
30571;SDS011;17348;50.948;10.696;2024-01-11T01:34:06;149.67;;;39.63;;
30571;SDS011;17348;50.948;10.696;2024-01-11T01:37:11;115.10;;;39.13;;
30571;SDS011;17348;50.948;10.696;2024-01-11T01:40:14;128.70;;;38.57;;
30571;SDS011;17348;50.948;10.696;2024-01-11T01:43:16;130.17;;;40.80;;
30571;SDS011;17348;50.948;10.696;2024-01-11T01:46:19;121.33;;;38.50;;
30571;SDS011;17348;50.948;10.696;2024-01-11T01:49:25;123.83;;;37.77;;
30571;SDS011;17348;50.948;10.696;2024-01-11T01:52:29;120.73;;;35.23;;
30571;SDS011;17348;50.948;10.696;2024-01-11T01:55:33;120.20;;;36.63;;
30571;SDS011;17348;50.948;10.696;2024-01-11T01:58:36;120.33;;;41.50;;
30571;SDS011;17348;50.948;10.696;2024-01-11T02:01:38;129.00;;;38.07;;
30571;SDS011;17348;50.948;10.696;2024-01-11T02:04:41;130.03;;;38.20;;
30571;SDS011;17348;50.948;10.696;2024-01-11T02:07:45;122.03;;;40.17;;
30571;SDS011;17348;50.948;10.696;2024-01-11T02:10:48;126.53;;;40.07;;
30571;SDS011;17348;50.948;10.696;2024-01-11T02:13:50;122.97;;;36.13;;
30571;SDS011;17348;50.948;10.696;2024-01-11T02:16:56;114.63;;;35.10;;
30571;SDS011;17348;50.948;10.696;2024-01-11T02:19:58;106.43;;;39.90;;
30571;SDS011;17348;50.948;10.696;2024-01-11T02:23:08;122.40;;;39.50;;
30571;SDS011;17348;50.948;10.696;2024-01-11T02:26:15;105.33;;;34.97;;
30571;SDS011;17348;50.948;10.696;2024-01-11T02:29:18;99.30;;;31.70;;
30571;SDS011;17348;50.948;10.696;2024-01-11T02:32:20;91.77;;;28.87;;
30571;SDS011;17348;50.948;10.696;2024-01-11T02:35:24;101.13;;;30.87;;
30571;SDS011;17348;50.948;10.696;2024-01-11T02:38:28;94.23;;;28.27;;
30571;SDS011;17348;50.948;10.696;2024-01-11T02:41:38;97.27;;;30.60;;
30571;SDS011;17348;50.948;10.696;2024-01-11T02:44:41;89.00;;;29.10;;
30571;SDS011;17348;50.948;10.696;2024-01-11T02:47:43;97.03;;;32.97;;
30571;SDS011;17348;50.948;10.696;2024-01-11T02:50:46;100.50;;;30.17;;
30571;SDS011;17348;50.948;10.696;2024-01-11T02:53:49;108.57;;;31.40;;
30571;SDS011;17348;50.948;10.696;2024-01-11T02:56:53;85.13;;;27.63;;
30571;SDS011;17348;50.948;10.696;2024-01-11T03:00:01;89.68;;;30.85;;
30571;SDS011;17348;50.948;10.696;2024-01-11T03:03:04;98.67;;;29.57;;
30571;SDS011;17348;50.948;10.696;2024-01-11T03:06:06;95.03;;;30.60;;
30571;SDS011;17348;50.948;10.696;2024-01-11T03:09:09;120.27;;;37.67;;
30571;SDS011;17348;50.948;10.696;2024-01-11T03:12:15;103.77;;;34.20;;
30571;SDS011;17348;50.948;10.696;2024-01-11T03:15:17;121.20;;;35.47;;
30571;SDS011;17348;50.948;10.696;2024-01-11T03:18:20;126.73;;;36.60;;
30571;SDS011;17348;50.948;10.696;2024-01-11T03:21:24;127.13;;;42.27;;
30571;SDS011;17348;50.948;10.696;2024-01-11T03:24:27;130.60;;;39.80;;
30571;SDS011;17348;50.948;10.696;2024-01-11T03:27:31;101.53;;;34.13;;
30571;SDS011;17348;50.948;10.696;2024-01-11T03:30:33;111.73;;;35.00;;
30571;SDS011;17348;50.948;10.696;2024-01-11T03:33:36;125.63;;;40.20;;
30571;SDS011;17348;50.948;10.696;2024-01-11T03:36:38;125.43;;;39.73;;
30571;SDS011;17348;50.948;10.696;2024-01-11T03:39:41;98.97;;;33.13;;
30571;SDS011;17348;50.948;10.696;2024-01-11T03:42:44;127.53;;;37.20;;
30571;SDS011;17348;50.948;10.696;2024-01-11T03:45:47;142.40;;;40.37;;
30571;SDS011;17348;50.948;10.696;2024-01-11T03:48:49;106.47;;;34.97;;
30571;SDS011;17348;50.948;10.696;2024-01-11T03:51:52;115.60;;;36.03;;
30571;SDS011;17348;50.948;10.696;2024-01-11T03:54:54;100.93;;;33.93;;
30571;SDS011;17348;50.948;10.696;2024-01-11T03:57:58;103.70;;;33.10;;
30571;SDS011;17348;50.948;10.696;2024-01-11T04:01:03;119.40;;;35.47;;
30571;SDS011;17348;50.948;10.696;2024-01-11T04:04:05;126.53;;;38.53;;
30571;SDS011;17348;50.948;10.696;2024-01-11T04:07:07;100.07;;;34.00;;
30571;SDS011;17348;50.948;10.696;2024-01-11T04:10:10;108.67;;;34.67;;
30571;SDS011;17348;50.948;10.696;2024-01-11T04:13:13;126.20;;;34.93;;
30571;SDS011;17348;50.948;10.696;2024-01-11T04:16:16;94.10;;;32.23;;
30571;SDS011;17348;50.948;10.696;2024-01-11T04:19:18;98.80;;;33.27;;
30571;SDS011;17348;50.948;10.696;2024-01-11T04:22:23;109.23;;;34.57;;
30571;SDS011;17348;50.948;10.696;2024-01-11T04:25:26;104.77;;;32.73;;
30571;SDS011;17348;50.948;10.696;2024-01-11T04:28:29;125.70;;;32.67;;
30571;SDS011;17348;50.948;10.696;2024-01-11T04:31:32;99.40;;;30.93;;
30571;SDS011;17348;50.948;10.696;2024-01-11T04:34:35;103.20;;;30.43;;
30571;SDS011;17348;50.948;10.696;2024-01-11T04:37:37;101.67;;;30.70;;
30571;SDS011;17348;50.948;10.696;2024-01-11T04:40:39;90.90;;;29.47;;
30571;SDS011;17348;50.948;10.696;2024-01-11T04:43:47;78.60;;;29.83;;
30571;SDS011;17348;50.948;10.696;2024-01-11T04:46:50;85.67;;;29.13;;
30571;SDS011;17348;50.948;10.696;2024-01-11T04:49:52;86.60;;;29.13;;
30571;SDS011;17348;50.948;10.696;2024-01-11T04:52:54;99.20;;;27.77;;
30571;SDS011;17348;50.948;10.696;2024-01-11T04:55:56;109.03;;;27.77;;
30571;SDS011;17348;50.948;10.696;2024-01-11T04:59:00;104.93;;;26.73;;
30571;SDS011;17348;50.948;10.696;2024-01-11T05:02:05;93.70;;;29.47;;
30571;SDS011;17348;50.948;10.696;2024-01-11T05:05:08;97.97;;;30.33;;
30571;SDS011;17348;50.948;10.696;2024-01-11T05:08:10;85.87;;;29.50;;
30571;SDS011;17348;50.948;10.696;2024-01-11T05:11:16;81.73;;;29.47;;
30571;SDS011;17348;50.948;10.696;2024-01-11T05:14:20;84.77;;;26.33;;
30571;SDS011;17348;50.948;10.696;2024-01-11T05:17:22;97.80;;;29.73;;
30571;SDS011;17348;50.948;10.696;2024-01-11T05:20:26;82.03;;;27.00;;
30571;SDS011;17348;50.948;10.696;2024-01-11T05:23:30;77.30;;;27.53;;
30571;SDS011;17348;50.948;10.696;2024-01-11T05:26:32;106.37;;;29.47;;
30571;SDS011;17348;50.948;10.696;2024-01-11T05:29:36;85.80;;;27.07;;
30571;SDS011;17348;50.948;10.696;2024-01-11T05:32:38;85.77;;;27.67;;
30571;SDS011;17348;50.948;10.696;2024-01-11T05:35:40;90.07;;;29.37;;
30571;SDS011;17348;50.948;10.696;2024-01-11T05:38:42;82.03;;;30.90;;
30571;SDS011;17348;50.948;10.696;2024-01-11T05:41:46;79.30;;;26.20;;
30571;SDS011;17348;50.948;10.696;2024-01-11T05:44:51;103.80;;;32.20;;
30571;SDS011;17348;50.948;10.696;2024-01-11T05:47:53;101.10;;;32.43;;
30571;SDS011;17348;50.948;10.696;2024-01-11T05:50:55;83.00;;;26.77;;
30571;SDS011;17348;50.948;10.696;2024-01-11T05:53:58;99.60;;;30.53;;
30571;SDS011;17348;50.948;10.696;2024-01-11T05:57:00;94.30;;;31.67;;
30571;SDS011;17348;50.948;10.696;2024-01-11T06:00:04;92.57;;;28.17;;
30571;SDS011;17348;50.948;10.696;2024-01-11T06:03:07;89.43;;;27.20;;
30571;SDS011;17348;50.948;10.696;2024-01-11T06:06:09;88.70;;;28.23;;
30571;SDS011;17348;50.948;10.696;2024-01-11T06:09:12;83.67;;;30.03;;
30571;SDS011;17348;50.948;10.696;2024-01-11T06:12:14;95.23;;;30.97;;
30571;SDS011;17348;50.948;10.696;2024-01-11T06:15:18;100.97;;;30.40;;
30571;SDS011;17348;50.948;10.696;2024-01-11T06:18:20;95.20;;;27.53;;
30571;SDS011;17348;50.948;10.696;2024-01-11T06:21:23;75.77;;;25.20;;
30571;SDS011;17348;50.948;10.696;2024-01-11T06:24:25;65.33;;;23.83;;
30571;SDS011;17348;50.948;10.696;2024-01-11T06:27:27;77.13;;;26.20;;
30571;SDS011;17348;50.948;10.696;2024-01-11T06:30:31;78.23;;;20.63;;
30571;SDS011;17348;50.948;10.696;2024-01-11T06:33:33;78.20;;;24.90;;
30571;SDS011;17348;50.948;10.696;2024-01-11T06:36:37;68.33;;;19.57;;
30571;SDS011;17348;50.948;10.696;2024-01-11T06:39:39;67.67;;;22.33;;
30571;SDS011;17348;50.948;10.696;2024-01-11T06:42:42;83.13;;;25.03;;
30571;SDS011;17348;50.948;10.696;2024-01-11T06:45:45;72.37;;;24.17;;
30571;SDS011;17348;50.948;10.696;2024-01-11T06:48:48;85.47;;;25.73;;
30571;SDS011;17348;50.948;10.696;2024-01-11T06:51:50;84.47;;;28.63;;
30571;SDS011;17348;50.948;10.696;2024-01-11T06:54:53;121.30;;;35.10;;
30571;SDS011;17348;50.948;10.696;2024-01-11T06:57:55;97.63;;;31.93;;
30571;SDS011;17348;50.948;10.696;2024-01-11T07:00:59;97.57;;;31.47;;
30571;SDS011;17348;50.948;10.696;2024-01-11T07:04:02;106.13;;;32.23;;
30571;SDS011;17348;50.948;10.696;2024-01-11T07:07:04;99.57;;;31.53;;
30571;SDS011;17348;50.948;10.696;2024-01-11T07:10:07;98.73;;;34.33;;
30571;SDS011;17348;50.948;10.696;2024-01-11T07:13:09;93.97;;;34.27;;
30571;SDS011;17348;50.948;10.696;2024-01-11T07:16:15;111.17;;;36.13;;
30571;SDS011;17348;50.948;10.696;2024-01-11T07:19:17;111.80;;;37.67;;
30571;SDS011;17348;50.948;10.696;2024-01-11T07:22:19;105.03;;;32.27;;
30571;SDS011;17348;50.948;10.696;2024-01-11T07:25:22;118.23;;;36.10;;
30571;SDS011;17348;50.948;10.696;2024-01-11T07:28:24;88.03;;;31.87;;
30571;SDS011;17348;50.948;10.696;2024-01-11T07:31:28;113.53;;;34.13;;
30571;SDS011;17348;50.948;10.696;2024-01-11T07:34:31;124.00;;;35.77;;
30571;SDS011;17348;50.948;10.696;2024-01-11T07:37:34;132.20;;;37.93;;
30571;SDS011;17348;50.948;10.696;2024-01-11T07:40:36;93.70;;;32.20;;
30571;SDS011;17348;50.948;10.696;2024-01-11T07:43:39;112.20;;;33.67;;
30571;SDS011;17348;50.948;10.696;2024-01-11T07:46:43;90.37;;;29.27;;
30571;SDS011;17348;50.948;10.696;2024-01-11T07:49:46;102.73;;;30.90;;
30571;SDS011;17348;50.948;10.696;2024-01-11T07:52:48;118.20;;;34.17;;
30571;SDS011;17348;50.948;10.696;2024-01-11T07:55:51;90.17;;;28.73;;
30571;SDS011;17348;50.948;10.696;2024-01-11T07:58:56;74.00;;;25.60;;
30571;SDS011;17348;50.948;10.696;2024-01-11T08:02:00;69.70;;;23.10;;
30571;SDS011;17348;50.948;10.696;2024-01-11T08:05:02;66.60;;;20.27;;
30571;SDS011;17348;50.948;10.696;2024-01-11T08:08:05;73.77;;;23.40;;
30571;SDS011;17348;50.948;10.696;2024-01-11T08:11:07;69.97;;;20.80;;
30571;SDS011;17348;50.948;10.696;2024-01-11T08:14:10;63.57;;;20.30;;
30571;SDS011;17348;50.948;10.696;2024-01-11T08:17:14;49.60;;;19.40;;
30571;SDS011;17348;50.948;10.696;2024-01-11T08:20:16;67.47;;;20.17;;
30571;SDS011;17348;50.948;10.696;2024-01-11T08:23:18;69.07;;;23.87;;
30571;SDS011;17348;50.948;10.696;2024-01-11T08:26:21;87.23;;;27.20;;
30571;SDS011;17348;50.948;10.696;2024-01-11T08:29:24;78.63;;;24.23;;
30571;SDS011;17348;50.948;10.696;2024-01-11T08:32:30;77.97;;;25.20;;
30571;SDS011;17348;50.948;10.696;2024-01-11T08:35:39;68.13;;;24.27;;
30571;SDS011;17348;50.948;10.696;2024-01-11T08:38:42;86.60;;;24.43;;
30571;SDS011;17348;50.948;10.696;2024-01-11T08:41:44;70.63;;;22.07;;
30571;SDS011;17348;50.948;10.696;2024-01-11T08:44:47;67.43;;;22.77;;
30571;SDS011;17348;50.948;10.696;2024-01-11T08:47:50;67.97;;;21.33;;
30571;SDS011;17348;50.948;10.696;2024-01-11T08:50:53;76.37;;;23.03;;
30571;SDS011;17348;50.948;10.696;2024-01-11T08:53:58;74.10;;;23.17;;
30571;SDS011;17348;50.948;10.696;2024-01-11T08:57:04;71.97;;;24.23;;
30571;SDS011;17348;50.948;10.696;2024-01-11T09:00:07;77.43;;;27.60;;
30571;SDS011;17348;50.948;10.696;2024-01-11T09:03:11;84.47;;;28.37;;
30571;SDS011;17348;50.948;10.696;2024-01-11T09:06:16;112.00;;;34.33;;
30571;SDS011;17348;50.948;10.696;2024-01-11T09:09:18;104.87;;;36.13;;
30571;SDS011;17348;50.948;10.696;2024-01-11T09:12:20;111.50;;;36.50;;
30571;SDS011;17348;50.948;10.696;2024-01-11T09:15:23;111.63;;;36.37;;
30571;SDS011;17348;50.948;10.696;2024-01-11T09:18:27;117.40;;;36.80;;
30571;SDS011;17348;50.948;10.696;2024-01-11T09:21:29;124.93;;;38.23;;
30571;SDS011;17348;50.948;10.696;2024-01-11T09:24:31;130.07;;;41.07;;
30571;SDS011;17348;50.948;10.696;2024-01-11T09:27:36;133.93;;;40.20;;
30571;SDS011;17348;50.948;10.696;2024-01-11T09:30:39;119.27;;;39.30;;
30571;SDS011;17348;50.948;10.696;2024-01-11T09:33:42;130.00;;;40.43;;
30571;SDS011;17348;50.948;10.696;2024-01-11T09:36:45;129.40;;;41.87;;
30571;SDS011;17348;50.948;10.696;2024-01-11T09:39:48;129.87;;;41.87;;
30571;SDS011;17348;50.948;10.696;2024-01-11T09:42:50;127.20;;;41.47;;
30571;SDS011;17348;50.948;10.696;2024-01-11T09:45:53;131.10;;;45.70;;
30571;SDS011;17348;50.948;10.696;2024-01-11T09:48:58;121.23;;;40.07;;
30571;SDS011;17348;50.948;10.696;2024-01-11T09:52:05;123.83;;;42.17;;
30571;SDS011;17348;50.948;10.696;2024-01-11T09:55:10;126.50;;;39.10;;
30571;SDS011;17348;50.948;10.696;2024-01-11T09:58:14;139.80;;;46.07;;
30571;SDS011;17348;50.948;10.696;2024-01-11T10:01:17;104.00;;;36.77;;
30571;SDS011;17348;50.948;10.696;2024-01-11T10:04:21;123.60;;;39.73;;
30571;SDS011;17348;50.948;10.696;2024-01-11T10:07:24;114.50;;;40.57;;
30571;SDS011;17348;50.948;10.696;2024-01-11T10:10:26;121.33;;;40.33;;
30571;SDS011;17348;50.948;10.696;2024-01-11T10:13:29;114.50;;;39.87;;
30571;SDS011;17348;50.948;10.696;2024-01-11T10:16:33;116.53;;;37.47;;
30571;SDS011;17348;50.948;10.696;2024-01-11T10:19:37;99.07;;;30.73;;
30571;SDS011;17348;50.948;10.696;2024-01-11T10:22:39;80.83;;;30.87;;
30571;SDS011;17348;50.948;10.696;2024-01-11T10:25:42;81.20;;;29.63;;
30571;SDS011;17348;50.948;10.696;2024-01-11T10:28:45;80.10;;;29.70;;
30571;SDS011;17348;50.948;10.696;2024-01-11T10:31:47;76.17;;;27.07;;
30571;SDS011;17348;50.948;10.696;2024-01-11T10:34:52;74.53;;;24.17;;
30571;SDS011;17348;50.948;10.696;2024-01-11T10:37:54;79.47;;;28.20;;
30571;SDS011;17348;50.948;10.696;2024-01-11T10:41:00;80.30;;;27.47;;
30571;SDS011;17348;50.948;10.696;2024-01-11T10:44:11;76.27;;;27.70;;
30571;SDS011;17348;50.948;10.696;2024-01-11T10:47:21;84.47;;;29.30;;
30571;SDS011;17348;50.948;10.696;2024-01-11T10:50:28;78.33;;;29.37;;
30571;SDS011;17348;50.948;10.696;2024-01-11T10:53:36;86.70;;;29.27;;
30571;SDS011;17348;50.948;10.696;2024-01-11T10:56:46;83.70;;;32.90;;
30571;SDS011;17348;50.948;10.696;2024-01-11T10:59:50;75.30;;;30.20;;
30571;SDS011;17348;50.948;10.696;2024-01-11T11:02:58;84.33;;;29.90;;
30571;SDS011;17348;50.948;10.696;2024-01-11T11:06:07;81.20;;;30.80;;
30571;SDS011;17348;50.948;10.696;2024-01-11T11:09:11;83.63;;;31.73;;
30571;SDS011;17348;50.948;10.696;2024-01-11T11:12:19;95.23;;;32.63;;
30571;SDS011;17348;50.948;10.696;2024-01-11T11:15:24;96.27;;;34.97;;
30571;SDS011;17348;50.948;10.696;2024-01-11T11:18:28;83.40;;;32.93;;
30571;SDS011;17348;50.948;10.696;2024-01-11T11:21:32;103.13;;;35.17;;
30571;SDS011;17348;50.948;10.696;2024-01-11T11:24:43;101.70;;;36.37;;
30571;SDS011;17348;50.948;10.696;2024-01-11T11:27:45;89.80;;;33.63;;
30571;SDS011;17348;50.948;10.696;2024-01-11T11:30:48;104.17;;;35.00;;
30571;SDS011;17348;50.948;10.696;2024-01-11T11:33:52;100.67;;;35.20;;
30571;SDS011;17348;50.948;10.696;2024-01-11T11:36:56;89.20;;;33.90;;
30571;SDS011;17348;50.948;10.696;2024-01-11T11:39:58;87.57;;;30.30;;
30571;SDS011;17348;50.948;10.696;2024-01-11T11:43:01;84.70;;;31.43;;
30571;SDS011;17348;50.948;10.696;2024-01-11T11:46:05;91.57;;;33.33;;
30571;SDS011;17348;50.948;10.696;2024-01-11T11:49:08;98.13;;;34.03;;
30571;SDS011;17348;50.948;10.696;2024-01-11T11:52:15;93.37;;;32.80;;
30571;SDS011;17348;50.948;10.696;2024-01-11T11:55:18;81.40;;;28.60;;
30571;SDS011;17348;50.948;10.696;2024-01-11T11:58:21;69.07;;;28.13;;
30571;SDS011;17348;50.948;10.696;2024-01-11T12:01:26;60.40;;;23.00;;
30571;SDS011;17348;50.948;10.696;2024-01-11T12:04:33;63.77;;;24.07;;
30571;SDS011;17348;50.948;10.696;2024-01-11T12:07:36;69.40;;;23.50;;
30571;SDS011;17348;50.948;10.696;2024-01-11T12:10:39;49.30;;;20.93;;
30571;SDS011;17348;50.948;10.696;2024-01-11T12:13:42;53.53;;;21.53;;
30571;SDS011;17348;50.948;10.696;2024-01-11T12:16:45;53.73;;;19.90;;
30571;SDS011;17348;50.948;10.696;2024-01-11T12:19:56;53.87;;;21.83;;
30571;SDS011;17348;50.948;10.696;2024-01-11T12:23:00;51.13;;;19.80;;
30571;SDS011;17348;50.948;10.696;2024-01-11T12:26:03;45.20;;;17.50;;
30571;SDS011;17348;50.948;10.696;2024-01-11T12:29:08;46.07;;;19.03;;
30571;SDS011;17348;50.948;10.696;2024-01-11T12:32:11;42.93;;;15.40;;
30571;SDS011;17348;50.948;10.696;2024-01-11T12:35:16;39.53;;;16.73;;
30571;SDS011;17348;50.948;10.696;2024-01-11T12:38:20;42.23;;;16.30;;
30571;SDS011;17348;50.948;10.696;2024-01-11T12:41:26;41.70;;;16.13;;
30571;SDS011;17348;50.948;10.696;2024-01-11T12:44:31;44.70;;;15.60;;
30571;SDS011;17348;50.948;10.696;2024-01-11T12:47:35;38.87;;;14.77;;
30571;SDS011;17348;50.948;10.696;2024-01-11T12:50:38;46.50;;;16.47;;
30571;SDS011;17348;50.948;10.696;2024-01-11T12:53:42;45.10;;;16.43;;
30571;SDS011;17348;50.948;10.696;2024-01-11T12:56:46;44.73;;;19.40;;
30571;SDS011;17348;50.948;10.696;2024-01-11T12:59:50;50.37;;;19.27;;
30571;SDS011;17348;50.948;10.696;2024-01-11T13:02:53;46.60;;;18.40;;
30571;SDS011;17348;50.948;10.696;2024-01-11T13:05:58;59.57;;;16.93;;
30571;SDS011;17348;50.948;10.696;2024-01-11T13:09:02;51.87;;;18.93;;
30571;SDS011;17348;50.948;10.696;2024-01-11T13:12:08;44.37;;;17.37;;
30571;SDS011;17348;50.948;10.696;2024-01-11T13:15:15;45.03;;;16.17;;
30571;SDS011;17348;50.948;10.696;2024-01-11T13:18:17;52.07;;;16.90;;
30571;SDS011;17348;50.948;10.696;2024-01-11T13:21:20;49.27;;;18.00;;
30571;SDS011;17348;50.948;10.696;2024-01-11T13:24:24;45.87;;;15.73;;
30571;SDS011;17348;50.948;10.696;2024-01-11T13:27:28;46.73;;;15.30;;
30571;SDS011;17348;50.948;10.696;2024-01-11T13:30:33;37.80;;;14.03;;
30571;SDS011;17348;50.948;10.696;2024-01-11T13:33:36;39.10;;;15.27;;
30571;SDS011;17348;50.948;10.696;2024-01-11T13:36:39;38.93;;;15.70;;
30571;SDS011;17348;50.948;10.696;2024-01-11T13:39:45;48.90;;;17.83;;
30571;SDS011;17348;50.948;10.696;2024-01-11T13:42:49;44.00;;;16.00;;
30571;SDS011;17348;50.948;10.696;2024-01-11T13:45:51;40.93;;;14.50;;
30571;SDS011;17348;50.948;10.696;2024-01-11T13:48:58;42.93;;;16.17;;
30571;SDS011;17348;50.948;10.696;2024-01-11T13:52:00;45.17;;;16.60;;
30571;SDS011;17348;50.948;10.696;2024-01-11T13:55:05;41.70;;;17.60;;
30571;SDS011;17348;50.948;10.696;2024-01-11T13:58:10;44.93;;;17.50;;
30571;SDS011;17348;50.948;10.696;2024-01-11T14:01:14;40.67;;;16.77;;
30571;SDS011;17348;50.948;10.696;2024-01-11T14:04:17;36.40;;;15.07;;
30571;SDS011;17348;50.948;10.696;2024-01-11T14:07:23;42.80;;;16.50;;
30571;SDS011;17348;50.948;10.696;2024-01-11T14:10:27;40.83;;;15.50;;
30571;SDS011;17348;50.948;10.696;2024-01-11T14:13:29;54.90;;;18.60;;
30571;SDS011;17348;50.948;10.696;2024-01-11T14:16:33;46.93;;;19.03;;
30571;SDS011;17348;50.948;10.696;2024-01-11T14:19:36;44.07;;;17.27;;
30571;SDS011;17348;50.948;10.696;2024-01-11T14:22:41;49.77;;;18.97;;
30571;SDS011;17348;50.948;10.696;2024-01-11T14:25:49;54.13;;;19.37;;
30571;SDS011;17348;50.948;10.696;2024-01-11T14:28:51;51.30;;;20.27;;
30571;SDS011;17348;50.948;10.696;2024-01-11T14:31:59;51.53;;;19.73;;
30571;SDS011;17348;50.948;10.696;2024-01-11T14:35:05;56.93;;;20.97;;
30571;SDS011;17348;50.948;10.696;2024-01-11T14:38:07;59.67;;;21.27;;
30571;SDS011;17348;50.948;10.696;2024-01-11T14:41:12;68.37;;;22.90;;
30571;SDS011;17348;50.948;10.696;2024-01-11T14:44:15;57.90;;;22.23;;
30571;SDS011;17348;50.948;10.696;2024-01-11T14:47:17;60.83;;;22.50;;
30571;SDS011;17348;50.948;10.696;2024-01-11T14:50:23;64.93;;;21.93;;
30571;SDS011;17348;50.948;10.696;2024-01-11T14:53:25;63.67;;;23.73;;
30571;SDS011;17348;50.948;10.696;2024-01-11T14:56:29;57.83;;;23.67;;
30571;SDS011;17348;50.948;10.696;2024-01-11T14:59:31;57.30;;;22.93;;
30571;SDS011;17348;50.948;10.696;2024-01-11T15:02:35;48.13;;;21.53;;
30571;SDS011;17348;50.948;10.696;2024-01-11T15:05:38;57.30;;;22.53;;
30571;SDS011;17348;50.948;10.696;2024-01-11T15:08:40;64.07;;;23.83;;
30571;SDS011;17348;50.948;10.696;2024-01-11T15:11:44;63.97;;;22.50;;
30571;SDS011;17348;50.948;10.696;2024-01-11T15:14:46;58.37;;;22.77;;
30571;SDS011;17348;50.948;10.696;2024-01-11T15:17:51;64.13;;;22.03;;
30571;SDS011;17348;50.948;10.696;2024-01-11T15:20:53;62.00;;;22.33;;
30571;SDS011;17348;50.948;10.696;2024-01-11T15:23:55;52.83;;;22.70;;
30571;SDS011;17348;50.948;10.696;2024-01-11T15:27:01;68.87;;;22.93;;
30571;SDS011;17348;50.948;10.696;2024-01-11T15:30:04;60.07;;;21.20;;
30571;SDS011;17348;50.948;10.696;2024-01-11T15:33:07;68.23;;;24.20;;
30571;SDS011;17348;50.948;10.696;2024-01-11T15:36:10;63.83;;;23.43;;
30571;SDS011;17348;50.948;10.696;2024-01-11T15:39:12;67.13;;;24.07;;
30571;SDS011;17348;50.948;10.696;2024-01-11T15:42:16;80.67;;;24.27;;
30571;SDS011;17348;50.948;10.696;2024-01-11T15:45:19;61.97;;;21.57;;
30571;SDS011;17348;50.948;10.696;2024-01-11T15:48:21;55.10;;;21.50;;
30571;SDS011;17348;50.948;10.696;2024-01-11T15:51:24;54.67;;;21.13;;
30571;SDS011;17348;50.948;10.696;2024-01-11T15:54:29;59.50;;;22.67;;
30571;SDS011;17348;50.948;10.696;2024-01-11T15:57:34;56.20;;;22.53;;
30571;SDS011;17348;50.948;10.696;2024-01-11T16:00:37;62.23;;;21.97;;
30571;SDS011;17348;50.948;10.696;2024-01-11T16:03:39;62.60;;;21.40;;
30571;SDS011;17348;50.948;10.696;2024-01-11T16:06:42;59.87;;;23.27;;
30571;SDS011;17348;50.948;10.696;2024-01-11T16:09:44;55.17;;;23.13;;
30571;SDS011;17348;50.948;10.696;2024-01-11T16:12:48;59.30;;;22.43;;
30571;SDS011;17348;50.948;10.696;2024-01-11T16:15:50;48.37;;;17.87;;
30571;SDS011;17348;50.948;10.696;2024-01-11T16:18:56;49.20;;;17.47;;
30571;SDS011;17348;50.948;10.696;2024-01-11T16:21:59;48.17;;;18.97;;
30571;SDS011;17348;50.948;10.696;2024-01-11T16:25:02;46.93;;;17.00;;
30571;SDS011;17348;50.948;10.696;2024-01-11T16:28:09;44.40;;;15.10;;
30571;SDS011;17348;50.948;10.696;2024-01-11T16:31:11;48.90;;;17.10;;
30571;SDS011;17348;50.948;10.696;2024-01-11T16:34:18;43.73;;;14.33;;
30571;SDS011;17348;50.948;10.696;2024-01-11T16:37:20;43.80;;;16.17;;
30571;SDS011;17348;50.948;10.696;2024-01-11T16:40:23;32.03;;;14.43;;
30571;SDS011;17348;50.948;10.696;2024-01-11T16:43:28;46.97;;;16.77;;
30571;SDS011;17348;50.948;10.696;2024-01-11T16:46:31;51.60;;;14.27;;
30571;SDS011;17348;50.948;10.696;2024-01-11T16:49:34;44.27;;;14.63;;
30571;SDS011;17348;50.948;10.696;2024-01-11T16:52:38;33.00;;;12.33;;
30571;SDS011;17348;50.948;10.696;2024-01-11T16:55:40;37.87;;;14.40;;
30571;SDS011;17348;50.948;10.696;2024-01-11T16:58:47;35.37;;;14.77;;
30571;SDS011;17348;50.948;10.696;2024-01-11T17:01:49;34.03;;;14.07;;
30571;SDS011;17348;50.948;10.696;2024-01-11T17:04:52;39.47;;;13.73;;
30571;SDS011;17348;50.948;10.696;2024-01-11T17:07:57;49.03;;;16.50;;
30571;SDS011;17348;50.948;10.696;2024-01-11T17:11:00;36.87;;;15.20;;
30571;SDS011;17348;50.948;10.696;2024-01-11T17:14:04;28.33;;;12.47;;
30571;SDS011;17348;50.948;10.696;2024-01-11T17:17:06;40.97;;;14.20;;
30571;SDS011;17348;50.948;10.696;2024-01-11T17:20:10;15.37;;;6.13;;
30571;SDS011;17348;50.948;10.696;2024-01-11T17:23:13;17.40;;;7.40;;
30571;SDS011;17348;50.948;10.696;2024-01-11T17:26:17;18.53;;;6.77;;
30571;SDS011;17348;50.948;10.696;2024-01-11T17:29:21;19.17;;;7.87;;
30571;SDS011;17348;50.948;10.696;2024-01-11T17:32:26;14.40;;;5.13;;